createdAt,value
2022-09-17T00:02:03.219Z,95.40
2022-09-17T00:04:31.500Z,88.30
2022-09-17T00:06:59.176Z,83.03
2022-09-17T00:09:26.829Z,85.66
2022-09-17T00:11:54.847Z,86.39
2022-09-17T00:14:22.510Z,94.81
2022-09-17T00:16:50.171Z,87.69
2022-09-17T00:19:21.827Z,92.96
2022-09-17T00:21:49.997Z,92.31
2022-09-17T00:24:19.826Z,89.11
2022-09-17T00:26:48.564Z,88.61
2022-09-17T00:29:16.761Z,92.83
2022-09-17T00:31:44.852Z,97.37
2022-09-17T00:34:12.617Z,94.55
2022-09-17T00:36:40.837Z,93.97
2022-09-17T00:39:10.653Z,93.43
2022-09-17T00:41:39.603Z,96.78
2022-09-17T00:44:43.235Z,93.34
2022-09-17T00:47:31.439Z,100.00
2022-09-17T00:50:07.119Z,97.52
2022-09-17T00:52:43.454Z,100.00
2022-09-17T00:55:18.395Z,94.04
2022-09-17T00:57:46.988Z,93.57
2022-09-17T01:00:16.306Z,92.22
2022-09-17T01:02:45.070Z,91.99
2022-09-17T01:05:14.215Z,95.45
2022-09-17T01:08:01.989Z,98.33
2022-09-17T01:10:42.960Z,94.40
2022-09-17T01:13:51.548Z,92.93
2022-09-17T01:16:25.319Z,87.76
2022-09-17T01:18:59.814Z,81.94
2022-09-17T01:21:59.425Z,85.02
2022-09-17T01:25:02.551Z,88.41
2022-09-17T01:27:49.421Z,92.22
2022-09-17T01:30:22.939Z,98.68
2022-09-17T01:33:21.672Z,97.56
2022-09-17T01:36:26.814Z,99.33
2022-09-17T01:39:32.081Z,91.65
2022-09-17T01:42:07.266Z,95.99
2022-09-17T01:44:45.429Z,89.64
2022-09-17T01:47:23.461Z,87.36
2022-09-17T01:49:57.442Z,84.29
2022-09-17T01:52:27.103Z,83.16
2022-09-17T01:55:01.196Z,82.60
2022-09-17T01:57:37.076Z,83.72
2022-09-17T02:00:17.811Z,82.32
2022-09-17T02:02:48.529Z,85.38
2022-09-17T02:05:31.447Z,89.32
2022-09-17T02:08:06.195Z,85.72
2022-09-17T02:10:43.542Z,85.19
2022-09-17T02:13:19.628Z,85.83
2022-09-17T02:15:58.018Z,87.03
2022-09-17T02:18:35.419Z,89.02
2022-09-17T02:21:12.139Z,87.73
2022-09-17T02:23:49.060Z,91.71
2022-09-17T02:26:20.448Z,94.78
2022-09-17T02:29:01.683Z,94.43
2022-09-17T02:31:30.065Z,89.07
2022-09-17T02:34:01.983Z,89.96
2022-09-17T02:36:32.419Z,85.62
2022-09-17T02:39:02.091Z,86.14
2022-09-17T02:41:41.078Z,93.30
2022-09-17T02:44:14.427Z,97.05
2022-09-17T02:46:48.471Z,88.83
2022-09-17T02:49:32.263Z,96.79
2022-09-17T02:52:19.142Z,96.51
2022-09-17T02:55:27.594Z,94.54
2022-09-17T02:58:15.406Z,87.98
2022-09-17T03:00:44.561Z,85.84
2022-09-17T03:03:32.583Z,84.78
2022-09-17T03:06:01.584Z,84.58
2022-09-17T03:08:33.351Z,83.98
2022-09-17T03:11:01.085Z,82.54
2022-09-17T03:13:29.101Z,82.41
2022-09-17T03:15:57.027Z,81.76
2022-09-17T03:18:24.808Z,81.79
2022-09-17T03:20:52.807Z,81.72
2022-09-17T03:23:20.498Z,81.79
2022-09-17T03:25:49.932Z,81.96
2022-09-17T03:28:18.183Z,84.40
2022-09-17T03:30:46.076Z,87.43
2022-09-17T03:33:14.085Z,82.21
2022-09-17T03:35:45.896Z,81.17
2022-09-17T03:38:14.310Z,80.96
2022-09-17T03:40:42.682Z,80.67
2022-09-17T03:43:10.736Z,80.42
2022-09-17T03:45:38.418Z,80.82
2022-09-17T03:48:09.698Z,80.20
2022-09-17T03:50:37.325Z,80.36
2022-09-17T03:53:04.940Z,80.14
2022-09-17T03:55:32.896Z,80.81
2022-09-17T03:58:00.499Z,79.91
2022-09-17T04:00:28.409Z,80.26
2022-09-17T04:02:56.535Z,78.90
2022-09-17T04:05:24.431Z,78.45
2022-09-17T04:07:52.063Z,78.05
2022-09-17T04:10:20.056Z,77.87
2022-09-17T04:12:48.087Z,78.35
2022-09-17T04:15:15.945Z,89.34
2022-09-17T04:20:29.977Z,78.86
2022-09-17T04:22:58.289Z,78.09
2022-09-17T04:25:26.023Z,82.20
2022-09-17T04:27:53.731Z,77.50
2022-09-17T04:30:21.975Z,76.42
2022-09-17T04:32:49.598Z,77.11
2022-09-17T04:35:17.420Z,82.55
2022-09-17T04:37:52.909Z,79.13
2022-09-17T04:40:20.997Z,76.79
2022-09-17T04:42:49.534Z,75.75
2022-09-17T04:45:17.239Z,82.83
2022-09-17T04:47:44.931Z,72.96
2022-09-17T04:50:13.101Z,74.43
2022-09-17T04:52:44.440Z,82.45
2022-09-17T04:55:13.324Z,78.01
2022-09-17T04:57:47.749Z,79.48
2022-09-17T05:00:17.889Z,75.71
2022-09-17T05:02:48.619Z,73.88
2022-09-17T05:05:18.291Z,74.59
2022-09-17T05:07:46.858Z,80.28
2022-09-17T05:10:17.064Z,77.60
2022-09-17T05:12:52.531Z,89.12
2022-09-17T05:15:22.733Z,79.22
2022-09-17T05:17:50.860Z,77.63
2022-09-17T05:20:19.020Z,82.05
2022-09-17T05:22:52.434Z,80.44
2022-09-17T05:25:21.084Z,80.93
2022-09-17T05:27:49.109Z,79.78
2022-09-17T05:30:16.981Z,78.31
2022-09-17T05:32:44.779Z,77.88
2022-09-17T05:35:12.987Z,94.29
2022-09-17T05:37:40.685Z,97.37
2022-09-17T05:40:09.675Z,84.49
2022-09-17T05:42:37.863Z,79.49
2022-09-17T05:45:06.735Z,80.75
2022-09-17T05:47:35.610Z,84.99
2022-09-17T05:50:03.963Z,82.46
2022-09-17T05:52:31.689Z,91.62
2022-09-17T05:54:59.384Z,85.98
2022-09-17T05:57:29.760Z,83.13
2022-09-17T05:59:57.431Z,88.42
2022-09-17T06:02:25.236Z,81.23
2022-09-17T06:04:53.256Z,87.95
2022-09-17T06:07:20.894Z,76.88
2022-09-17T06:09:48.863Z,74.81
2022-09-17T06:12:16.948Z,73.50
2022-09-17T06:14:44.572Z,78.59
2022-09-17T06:17:12.358Z,76.67
2022-09-17T06:19:40.438Z,78.95
2022-09-17T06:22:08.149Z,73.17
2022-09-17T06:24:35.861Z,72.45
2022-09-17T06:27:04.092Z,73.45
2022-09-17T06:29:31.895Z,72.96
2022-09-17T06:32:00.309Z,79.08
2022-09-17T06:34:28.439Z,74.47
2022-09-17T06:36:56.122Z,70.21
2022-09-17T06:39:24.613Z,77.24
2022-09-17T06:41:52.657Z,72.53
2022-09-17T06:44:20.487Z,74.11
2022-09-17T06:46:51.379Z,74.74
2022-09-17T06:49:19.866Z,70.15
2022-09-17T06:51:47.488Z,66.87
2022-09-17T06:54:15.136Z,69.02
2022-09-17T06:56:43.149Z,75.30
2022-09-17T06:59:10.827Z,70.91
2022-09-17T07:01:38.607Z,66.38
2022-09-17T07:04:06.803Z,70.93
2022-09-17T07:06:34.524Z,72.17
2022-09-17T07:09:02.259Z,69.68
2022-09-17T07:11:31.881Z,69.28
2022-09-17T07:13:59.948Z,68.47
2022-09-17T07:16:28.410Z,69.91
2022-09-17T07:18:56.439Z,67.39
2022-09-17T07:21:24.141Z,73.29
2022-09-17T07:23:52.202Z,68.39
2022-09-17T07:26:20.356Z,67.40
2022-09-17T07:28:48.043Z,63.28
2022-09-17T07:31:16.844Z,65.85
2022-09-17T07:33:45.837Z,67.50
2022-09-17T07:36:15.672Z,65.85
2022-09-17T07:38:43.361Z,66.78
2022-09-17T07:41:13.996Z,65.16
2022-09-17T07:43:43.012Z,62.15
2022-09-17T07:46:16.509Z,65.47
2022-09-17T07:48:44.353Z,64.86
2022-09-17T07:51:24.719Z,64.06
2022-09-17T07:53:58.310Z,57.51
2022-09-17T07:56:28.017Z,63.02
2022-09-17T07:58:56.492Z,59.97
2022-09-17T08:01:24.393Z,61.09
2022-09-17T08:03:54.445Z,57.80
2022-09-17T08:06:28.488Z,58.25
2022-09-17T08:08:58.504Z,60.70
2022-09-17T08:11:51.744Z,52.33
2022-09-17T08:14:16.901Z,53.09
2022-09-17T08:16:46.696Z,54.88
2022-09-17T08:19:14.501Z,52.39
2022-09-17T08:21:42.475Z,55.01
2022-09-17T08:24:10.242Z,53.49
2022-09-17T08:26:38.656Z,54.18
2022-09-17T08:29:07.636Z,50.38
2022-09-17T08:31:35.409Z,51.44
2022-09-17T08:34:07.132Z,51.26
2022-09-17T08:36:35.046Z,52.57
2022-09-17T08:39:03.077Z,54.44
2022-09-17T08:41:49.958Z,48.49
2022-09-17T08:44:28.085Z,46.61
2022-09-17T08:47:09.337Z,47.19
2022-09-17T08:49:41.976Z,48.17
2022-09-17T08:52:18.429Z,46.46
2022-09-17T08:55:17.922Z,50.74
2022-09-17T08:58:20.978Z,45.37
2022-09-17T09:01:25.402Z,43.92
2022-09-17T09:04:28.572Z,43.89
2022-09-17T09:07:01.078Z,53.02
2022-09-17T09:09:35.335Z,43.84
2022-09-17T09:12:24.580Z,43.57
2022-09-17T09:15:00.379Z,43.81
2022-09-17T09:17:55.193Z,42.02
2022-09-17T09:20:32.897Z,46.03
2022-09-17T09:23:25.668Z,44.94
2022-09-17T09:26:11.676Z,41.98
2022-09-17T09:29:06.274Z,40.68
2022-09-17T09:32:03.434Z,40.60
2022-09-17T09:34:35.312Z,38.68
2022-09-17T09:37:18.609Z,39.76
2022-09-17T09:39:51.240Z,41.42
2022-09-17T09:42:28.781Z,43.01
2022-09-17T09:45:14.290Z,44.25
2022-09-17T09:47:47.331Z,48.90
2022-09-17T09:50:38.558Z,44.84
2022-09-17T09:53:36.639Z,40.64
2022-09-17T09:56:10.641Z,39.48
2022-09-17T09:58:40.488Z,38.83
2022-09-17T10:01:17.346Z,40.13
2022-09-17T10:03:46.517Z,38.44
2022-09-17T10:06:16.399Z,41.26
2022-09-17T10:08:56.351Z,40.17
2022-09-17T10:11:26.799Z,45.45
2022-09-17T10:14:27.384Z,40.20
2022-09-17T10:17:17.239Z,40.46
2022-09-17T10:19:46.371Z,43.05
2022-09-17T10:22:44.923Z,43.42
2022-09-17T10:25:25.192Z,43.47
2022-09-17T10:27:53.486Z,43.43
2022-09-17T10:30:21.208Z,39.37
2022-09-17T10:33:15.473Z,39.47
2022-09-17T10:36:06.585Z,39.26
2022-09-17T10:38:37.808Z,38.33
2022-09-17T10:41:18.209Z,37.81
2022-09-17T10:43:46.313Z,39.69
2022-09-17T10:46:29.904Z,41.97
2022-09-17T10:49:17.136Z,40.86
2022-09-17T10:51:45.247Z,40.06
2022-09-17T10:54:12.999Z,39.05
2022-09-17T10:56:50.585Z,39.52
2022-09-17T10:59:48.014Z,39.62
2022-09-17T11:02:34.100Z,35.70
2022-09-17T11:05:31.573Z,35.35
2022-09-17T11:08:28.590Z,39.02
2022-09-17T11:11:28.274Z,35.36
2022-09-17T11:14:14.326Z,38.01
2022-09-17T11:16:59.469Z,37.04
2022-09-17T11:20:03.699Z,37.44
2022-09-17T11:22:50.603Z,38.17
2022-09-17T11:25:40.072Z,39.69
2022-09-17T11:28:35.689Z,37.03
2022-09-17T11:31:09.276Z,38.45
2022-09-17T11:33:46.326Z,37.29
2022-09-17T11:36:24.759Z,43.82
2022-09-17T11:39:01.783Z,44.19
2022-09-17T11:41:36.153Z,36.31
2022-09-17T11:44:29.098Z,36.04
2022-09-17T11:47:25.666Z,36.04
2022-09-17T11:50:23.201Z,34.06
2022-09-17T11:53:18.723Z,33.00
2022-09-17T11:55:56.099Z,33.81
2022-09-17T11:58:48.717Z,34.85
2022-09-17T12:01:30.156Z,43.10
2022-09-17T12:04:10.864Z,35.39
2022-09-17T12:06:57.224Z,38.82
2022-09-17T12:09:43.301Z,36.36
2022-09-17T12:12:47.905Z,37.97
2022-09-17T12:18:32.589Z,39.62
2022-09-17T12:21:05.471Z,38.41
2022-09-17T12:23:49.570Z,38.13
2022-09-17T12:26:29.704Z,35.00
2022-09-17T12:29:18.378Z,36.92
2022-09-17T12:32:17.396Z,37.84
2022-09-17T12:34:57.709Z,39.41
2022-09-17T12:37:41.012Z,39.74
2022-09-17T12:40:17.454Z,37.74
2022-09-17T12:43:08.383Z,36.71
2022-09-17T12:45:54.773Z,38.73
2022-09-17T12:48:44.896Z,40.30
2022-09-17T12:51:30.757Z,40.00
2022-09-17T12:57:27.366Z,35.34
2022-09-17T13:00:07.692Z,33.19
2022-09-17T13:03:23.401Z,31.51
2022-09-17T13:06:32.462Z,31.02
2022-09-17T13:09:07.977Z,31.17
2022-09-17T13:11:36.321Z,34.56
2022-09-17T13:14:42.356Z,37.19
2022-09-17T13:17:17.563Z,38.97
2022-09-17T13:19:57.084Z,39.57
2022-09-17T13:22:30.737Z,36.26
2022-09-17T13:25:19.756Z,34.16
2022-09-17T13:27:50.339Z,34.86
2022-09-17T13:30:24.008Z,32.59
2022-09-17T13:32:53.249Z,33.12
2022-09-17T13:35:21.178Z,36.29
2022-09-17T13:37:58.878Z,39.18
2022-09-17T13:43:24.021Z,38.96
2022-09-17T13:46:01.231Z,39.54
2022-09-17T13:48:32.217Z,40.27
2022-09-17T13:51:30.435Z,37.35
2022-09-17T13:54:05.392Z,36.54
2022-09-17T13:56:36.981Z,35.79
2022-09-17T14:02:01.212Z,33.49
2022-09-17T14:04:36.464Z,34.21
2022-09-17T14:07:24.041Z,37.16
2022-09-17T14:10:14.095Z,37.25
2022-09-17T14:12:41.721Z,37.83
2022-09-17T14:15:55.367Z,38.61
2022-09-17T14:18:28.895Z,37.65
2022-09-17T14:21:14.973Z,36.61
2022-09-17T14:23:45.850Z,37.55
2022-09-17T14:29:34.667Z,39.65
2022-09-17T14:32:02.903Z,38.85
2022-09-17T14:34:32.288Z,40.71
2022-09-17T14:37:00.279Z,41.12
2022-09-17T14:39:40.456Z,39.77
2022-09-17T14:42:17.930Z,39.60
2022-09-17T14:45:14.405Z,39.02
2022-09-17T14:47:42.169Z,38.52
2022-09-17T14:50:27.061Z,38.73
2022-09-17T14:52:55.071Z,40.72
2022-09-17T14:55:25.566Z,40.03
2022-09-17T14:57:55.804Z,40.62
2022-09-17T15:00:34.240Z,41.54
2022-09-17T15:03:02.503Z,42.78
2022-09-17T15:05:35.597Z,45.31
2022-09-17T15:08:07.901Z,48.04
2022-09-17T15:13:51.623Z,50.69
2022-09-17T15:16:22.958Z,52.87
2022-09-17T15:19:04.434Z,53.37
2022-09-17T15:21:46.182Z,54.30
2022-09-17T15:24:22.717Z,54.23
2022-09-17T15:26:54.954Z,56.17
2022-09-17T15:29:27.566Z,56.50
2022-09-17T15:31:58.875Z,56.30
2022-09-17T15:34:26.541Z,56.78
2022-09-17T15:37:17.519Z,56.96
2022-09-17T15:39:51.301Z,56.89
2022-09-17T15:42:20.869Z,58.52
2022-09-17T15:44:49.070Z,58.51
2022-09-17T15:47:53.459Z,59.78
2022-09-17T15:50:25.918Z,59.10
2022-09-17T15:53:13.568Z,58.48
2022-09-17T15:55:48.683Z,57.69
2022-09-17T15:58:42.431Z,57.89
2022-09-17T16:01:16.678Z,58.00
2022-09-17T16:03:44.923Z,55.64
2022-09-17T16:06:21.509Z,55.13
2022-09-17T16:08:52.659Z,54.94
2022-09-17T16:11:23.186Z,54.65
2022-09-17T16:13:53.670Z,56.60
2022-09-17T16:16:23.896Z,56.56
2022-09-17T16:18:52.078Z,56.48
2022-09-17T16:21:20.470Z,55.88
2022-09-17T16:23:48.245Z,56.66
2022-09-17T16:26:19.719Z,57.00
2022-09-17T16:28:49.983Z,56.49
2022-09-17T16:31:18.226Z,57.81
2022-09-17T16:33:46.052Z,57.00
2022-09-17T16:36:17.234Z,58.19
2022-09-17T16:38:45.359Z,57.12
2022-09-17T16:41:13.537Z,56.50
2022-09-17T16:43:41.361Z,56.87
2022-09-17T16:46:11.681Z,58.52
2022-09-17T16:48:39.522Z,58.78
2022-09-17T16:51:12.287Z,58.41
2022-09-17T16:53:40.548Z,61.61
2022-09-17T16:56:12.929Z,61.20
2022-09-17T16:58:42.090Z,62.56
2022-09-17T17:01:11.943Z,62.15
2022-09-17T17:03:40.289Z,60.73
2022-09-17T17:06:17.276Z,62.41
2022-09-17T17:08:45.389Z,65.70
2022-09-17T17:11:16.772Z,65.75
2022-09-17T17:13:45.017Z,61.38
2022-09-17T17:16:15.220Z,61.06
2022-09-17T17:18:47.979Z,66.77
2022-09-17T17:21:16.123Z,62.95
2022-09-17T17:23:44.109Z,61.56
2022-09-17T17:26:12.023Z,61.49
2022-09-17T17:28:40.826Z,62.81
2022-09-17T17:31:08.713Z,62.16
2022-09-17T17:33:36.731Z,61.33
2022-09-17T17:36:08.119Z,61.86
2022-09-17T17:38:37.235Z,62.27
2022-09-17T17:41:07.027Z,61.97
2022-09-17T17:43:35.641Z,61.27
2022-09-17T17:46:07.133Z,62.15
2022-09-17T17:48:35.853Z,62.06
2022-09-17T17:51:09.605Z,62.49
2022-09-17T17:53:38.621Z,62.21
2022-09-17T17:56:08.530Z,62.39
2022-09-17T17:58:37.223Z,62.17
2022-09-17T18:01:21.642Z,62.69
2022-09-17T18:03:50.157Z,63.74
2022-09-17T18:06:17.960Z,62.63
2022-09-17T18:08:45.783Z,62.49
2022-09-17T18:11:14.412Z,62.16
2022-09-17T18:13:43.068Z,63.64
2022-09-17T18:16:13.122Z,62.74
2022-09-17T18:18:44.928Z,62.46
2022-09-17T18:21:16.534Z,63.87
2022-09-17T18:23:45.634Z,64.42
2022-09-17T18:26:16.051Z,65.01
2022-09-17T18:28:44.991Z,64.82
2022-09-17T18:31:27.818Z,65.22
2022-09-17T18:33:56.223Z,65.42
2022-09-17T18:36:25.925Z,64.75
2022-09-17T18:39:56.398Z,67.33
2022-09-17T18:41:50.752Z,66.24
2022-09-17T18:44:22.115Z,67.51
2022-09-17T18:46:51.868Z,68.48
2022-09-17T18:49:20.140Z,67.20
2022-09-17T18:51:48.774Z,64.87
2022-09-17T18:54:17.554Z,66.32
2022-09-17T18:56:45.771Z,64.38
2022-09-17T18:59:13.947Z,64.48
2022-09-17T19:01:42.589Z,64.03
2022-09-17T19:04:11.689Z,64.46
2022-09-17T19:06:39.811Z,64.56
2022-09-17T19:09:09.645Z,65.18
2022-09-17T19:11:37.543Z,71.46
2022-09-17T19:14:05.565Z,69.27
2022-09-17T19:16:33.965Z,66.22
2022-09-17T19:19:01.960Z,67.39
2022-09-17T19:21:32.155Z,67.23
2022-09-17T19:24:03.197Z,70.95
2022-09-17T19:26:31.153Z,67.61
2022-09-17T19:29:00.732Z,70.21
2022-09-17T19:31:29.606Z,68.97
2022-09-17T19:34:00.407Z,66.64
2022-09-17T19:36:29.247Z,66.06
2022-09-17T19:38:59.206Z,66.36
2022-09-17T19:41:27.156Z,65.95
2022-09-17T19:43:57.186Z,66.01
2022-09-17T19:46:26.864Z,69.39
2022-09-17T19:48:57.464Z,65.22
2022-09-17T19:51:27.518Z,67.26
2022-09-17T19:53:56.918Z,65.86
2022-09-17T19:56:27.034Z,66.55
2022-09-17T19:58:55.514Z,65.74
2022-09-17T20:01:23.406Z,66.04
2022-09-17T20:03:53.487Z,72.64
2022-09-17T20:06:22.696Z,73.91
2022-09-17T20:08:52.491Z,70.89
2022-09-17T20:11:24.028Z,71.73
2022-09-17T20:14:03.591Z,69.46
2022-09-17T20:16:32.900Z,66.49
2022-09-17T20:19:01.531Z,67.51
2022-09-17T20:21:30.945Z,66.80
2022-09-17T20:24:00.111Z,69.79
2022-09-17T20:26:28.444Z,67.28
2022-09-17T20:28:56.630Z,69.35
2022-09-17T20:31:27.354Z,67.90
2022-09-17T20:33:56.824Z,67.27
2022-09-17T20:36:27.432Z,66.90
2022-09-17T20:39:14.211Z,67.44
2022-09-17T20:41:43.469Z,67.05
2022-09-17T20:44:11.184Z,66.55
2022-09-17T20:46:38.933Z,68.26
2022-09-17T20:49:07.099Z,67.80
2022-09-17T20:51:35.365Z,73.23
2022-09-17T20:54:03.856Z,76.00
2022-09-17T20:59:19.726Z,69.14
2022-09-17T21:01:50.166Z,69.68
2022-09-17T21:04:20.289Z,67.68
2022-09-17T21:06:52.793Z,66.99
2022-09-17T21:09:20.905Z,67.16
2022-09-17T21:11:49.682Z,66.89
2022-09-17T21:14:18.417Z,68.02
2022-09-17T21:19:32.594Z,68.00
2022-09-17T21:22:00.366Z,67.65
2022-09-17T21:24:28.037Z,67.48
2022-09-17T21:26:56.117Z,69.50
2022-09-17T21:29:23.873Z,67.98
2022-09-17T21:31:52.013Z,68.57
2022-09-17T21:34:20.275Z,70.56
2022-09-17T21:36:49.379Z,72.51
2022-09-17T21:39:18.289Z,70.36
2022-09-17T21:41:48.371Z,69.75
2022-09-17T21:44:16.067Z,70.86
2022-09-17T21:46:44.100Z,74.84
2022-09-17T21:49:13.683Z,70.11
2022-09-17T21:51:43.286Z,68.82
2022-09-17T21:54:13.599Z,74.15
2022-09-17T21:56:42.169Z,78.61
2022-09-17T21:59:13.387Z,76.06
2022-09-17T22:01:45.907Z,72.38
2022-09-17T22:04:16.990Z,72.81
2022-09-17T22:06:45.671Z,69.47
2022-09-17T22:09:25.614Z,69.25
2022-09-17T22:11:54.025Z,69.82
2022-09-17T22:14:24.298Z,69.64
2022-09-17T22:16:55.095Z,69.57
2022-09-17T22:19:24.902Z,69.22
2022-09-17T22:21:54.855Z,69.33
2022-09-17T22:24:24.413Z,68.94
2022-09-17T22:29:50.523Z,75.36
2022-09-17T22:32:18.298Z,69.78
2022-09-17T22:34:46.038Z,70.53
2022-09-17T22:37:13.999Z,71.76
2022-09-17T22:39:41.608Z,69.99
2022-09-17T22:42:09.195Z,77.27
2022-09-17T22:44:37.223Z,72.61
2022-09-17T22:47:05.051Z,70.16
2022-09-17T22:49:32.713Z,74.12
2022-09-17T22:52:00.802Z,70.26
2022-09-17T22:54:28.461Z,74.24
2022-09-17T22:56:56.086Z,70.88
2022-09-17T22:59:24.099Z,73.25
2022-09-17T23:01:51.847Z,71.11
2022-09-17T23:04:19.573Z,71.99
2022-09-17T23:06:47.587Z,83.89
2022-09-17T23:09:15.354Z,76.36
2022-09-17T23:11:43.079Z,81.30
2022-09-17T23:14:13.250Z,75.89
2022-09-17T23:16:47.529Z,72.24
2022-09-17T23:19:17.671Z,72.66
2022-09-17T23:21:45.833Z,75.23
2022-09-17T23:24:18.908Z,73.26
2022-09-17T23:26:47.373Z,76.15
2022-09-17T23:29:15.232Z,80.09
2022-09-17T23:31:43.621Z,77.27
2022-09-17T23:34:11.778Z,72.28
2022-09-17T23:36:40.462Z,72.32
2022-09-17T23:39:09.561Z,73.81
2022-09-17T23:41:40.833Z,75.00
2022-09-17T23:44:14.837Z,73.83
2022-09-17T23:46:45.718Z,72.98
2022-09-17T23:49:14.805Z,71.77
2022-09-17T23:51:42.857Z,73.00
2022-09-17T23:54:11.337Z,75.13
2022-09-17T23:56:39.333Z,75.57
2022-09-17T23:59:08.718Z,83.78
